createdAt,value
2023-03-12T00:02:19.018Z,94901.25
2023-03-12T00:05:05.332Z,94899.44
2023-03-12T00:07:51.990Z,94912.09
2023-03-12T00:10:39.535Z,94896.94
2023-03-12T00:13:25.604Z,94899.63
2023-03-12T00:16:14.098Z,94850.88
2023-03-12T00:19:01.407Z,94896.75
2023-03-12T00:21:47.568Z,94902.28
2023-03-12T00:24:33.604Z,94901.09
2023-03-12T00:27:20.620Z,94887.06
2023-03-12T00:30:07.721Z,94900.63
2023-03-12T00:32:53.405Z,94904.19
2023-03-12T00:35:39.293Z,94902.75
2023-03-12T00:38:25.217Z,94891.09
2023-03-12T00:41:11.144Z,94881.63
2023-03-12T00:43:57.727Z,94894.84
2023-03-12T00:46:43.887Z,94880.09
2023-03-12T00:49:29.535Z,94880.25
2023-03-12T00:52:15.511Z,94883.41
2023-03-12T00:55:01.267Z,94886.72
2023-03-12T00:57:47.126Z,94869.09
2023-03-12T01:00:33.083Z,94854.22
2023-03-12T01:03:19.267Z,94874.25
2023-03-12T01:06:06.056Z,94871.19
2023-03-12T01:08:52.514Z,94885.50
2023-03-12T01:11:39.028Z,94858.72
2023-03-12T01:14:25.555Z,94881.84
2023-03-12T01:17:11.707Z,94878.06
2023-03-12T01:19:57.557Z,94866.97
2023-03-12T01:22:44.246Z,94859.38
2023-03-12T01:25:30.496Z,94877.53
2023-03-12T01:28:16.227Z,94854.22
2023-03-12T01:31:13.412Z,94887.53
2023-03-12T01:33:59.436Z,94891.84
2023-03-12T01:36:47.789Z,94891.19
2023-03-12T01:39:33.521Z,94900.03
2023-03-12T01:42:19.393Z,94888.53
2023-03-12T01:45:06.139Z,94896.16
2023-03-12T01:47:53.102Z,94899.63
2023-03-12T01:50:39.062Z,94899.34
2023-03-12T01:53:25.443Z,94898.19
2023-03-12T01:56:12.450Z,94871.00
2023-03-12T01:59:15.560Z,94893.22
2023-03-12T02:02:06.702Z,94894.84
2023-03-12T02:05:04.644Z,94874.50
2023-03-12T02:07:51.580Z,94891.84
2023-03-12T02:10:37.843Z,94866.41
2023-03-12T02:13:23.934Z,94900.19
2023-03-12T02:16:10.248Z,94896.50
2023-03-12T02:18:57.392Z,94909.44
2023-03-12T02:21:43.612Z,94883.47
2023-03-12T02:24:40.057Z,94915.25
2023-03-12T02:27:27.526Z,94911.63
2023-03-12T02:30:18.654Z,94919.91
2023-03-12T02:33:07.519Z,94920.09
2023-03-12T02:35:54.477Z,94935.69
2023-03-12T02:38:52.023Z,94932.75
2023-03-12T02:41:54.621Z,94930.63
2023-03-12T02:44:43.765Z,94937.13
2023-03-12T02:47:33.090Z,94937.78
2023-03-12T02:50:19.488Z,94921.44
2023-03-12T02:53:05.297Z,94945.38
2023-03-12T02:55:52.040Z,94958.81
2023-03-12T02:58:38.038Z,94947.41
2023-03-12T03:01:23.970Z,94961.63
2023-03-12T03:04:11.794Z,94944.28
2023-03-12T03:06:58.040Z,94964.47
2023-03-12T03:09:44.461Z,94955.00
2023-03-12T03:12:31.344Z,94972.28
2023-03-12T03:15:18.665Z,94975.59
2023-03-12T03:18:05.238Z,94948.78
2023-03-12T03:20:59.722Z,94974.66
2023-03-12T03:23:47.876Z,94971.16
2023-03-12T03:26:34.218Z,94997.41
2023-03-12T03:29:20.756Z,95006.84
2023-03-12T03:32:07.371Z,94997.22
2023-03-12T03:34:53.173Z,95000.91
2023-03-12T03:37:39.710Z,95005.75
2023-03-12T03:40:25.951Z,95013.00
2023-03-12T03:43:11.683Z,95016.91
2023-03-12T03:46:03.059Z,95025.91
2023-03-12T03:48:53.008Z,95031.84
2023-03-12T03:51:42.657Z,95040.66
2023-03-12T03:54:32.091Z,95047.81
2023-03-12T03:57:18.926Z,95039.69
2023-03-12T04:00:09.583Z,95046.97
2023-03-12T04:02:59.407Z,95052.69
2023-03-12T04:05:45.597Z,95050.66
2023-03-12T04:08:35.462Z,95051.00
2023-03-12T04:11:22.703Z,95060.50
2023-03-12T04:14:08.630Z,95074.09
2023-03-12T04:16:57.043Z,95072.66
2023-03-12T04:19:42.843Z,95072.16
2023-03-12T04:22:28.832Z,95050.00
2023-03-12T04:25:14.762Z,95073.69
2023-03-12T04:28:01.353Z,95055.66
2023-03-12T04:30:59.616Z,95080.72
2023-03-12T04:33:46.337Z,95080.84
2023-03-12T04:36:32.643Z,95097.63
2023-03-12T04:39:20.400Z,95090.78
2023-03-12T04:42:09.868Z,95075.56
2023-03-12T04:44:56.276Z,95109.28
2023-03-12T04:47:42.150Z,95103.97
2023-03-12T04:50:29.214Z,95101.13
2023-03-12T04:53:16.672Z,95088.38
2023-03-12T04:56:02.353Z,95107.16
2023-03-12T04:58:49.369Z,95123.09
2023-03-12T05:01:36.800Z,95124.38
2023-03-12T05:04:27.626Z,95125.06
2023-03-12T05:07:15.220Z,95126.56
2023-03-12T05:10:01.336Z,95112.19
2023-03-12T05:12:47.467Z,95144.81
2023-03-12T05:15:37.047Z,95137.34
2023-03-12T05:18:23.392Z,95123.63
2023-03-12T05:21:12.515Z,95140.19
2023-03-12T05:23:59.123Z,95128.47
2023-03-12T05:26:47.238Z,95143.38
2023-03-12T05:29:36.505Z,95127.66
2023-03-12T05:32:23.464Z,95150.72
2023-03-12T05:35:09.946Z,95153.19
2023-03-12T05:37:56.073Z,95160.66
2023-03-12T05:40:41.826Z,95150.44
2023-03-12T05:43:27.793Z,95163.00
2023-03-12T05:46:14.865Z,95165.84
2023-03-12T05:49:00.853Z,95166.34
2023-03-12T05:51:49.146Z,95164.66
2023-03-12T05:54:35.598Z,95165.03
2023-03-12T05:57:24.072Z,95178.63
2023-03-12T06:00:12.664Z,95169.03
2023-03-12T06:03:01.747Z,95180.09
2023-03-12T06:05:48.383Z,95163.03
2023-03-12T06:08:34.463Z,95189.41
2023-03-12T06:11:20.323Z,95169.84
2023-03-12T06:14:07.087Z,95178.97
2023-03-12T06:16:54.919Z,95195.38
2023-03-12T06:19:40.601Z,95194.19
2023-03-12T06:22:26.881Z,95195.84
2023-03-12T06:25:12.675Z,95193.38
2023-03-12T06:28:00.000Z,95221.06
2023-03-12T06:30:45.727Z,95208.28
2023-03-12T06:33:32.047Z,95221.91
2023-03-12T06:36:18.159Z,95227.03
2023-03-12T06:39:06.507Z,95228.66
2023-03-12T06:41:52.173Z,95228.66
2023-03-12T06:44:37.765Z,95216.09
2023-03-12T06:47:23.550Z,95214.91
2023-03-12T06:50:09.976Z,95239.00
2023-03-12T06:52:56.105Z,95239.59
2023-03-12T06:55:43.659Z,95235.47
2023-03-12T06:58:29.732Z,95250.13
2023-03-12T07:01:15.540Z,95244.00
2023-03-12T07:04:01.543Z,95248.75
2023-03-12T07:06:51.419Z,95248.03
2023-03-12T07:09:37.566Z,95246.75
2023-03-12T07:12:23.855Z,95255.22
2023-03-12T07:15:10.178Z,95258.38
2023-03-12T07:17:57.145Z,95254.19
2023-03-12T07:20:43.875Z,95233.94
2023-03-12T07:23:29.894Z,95260.69
2023-03-12T07:26:15.974Z,95264.59
2023-03-12T07:29:03.116Z,95240.84
2023-03-12T07:31:48.905Z,95268.72
2023-03-12T07:34:34.972Z,95240.19
2023-03-12T07:37:21.311Z,95269.69
2023-03-12T07:40:08.186Z,95241.69
2023-03-12T07:42:54.255Z,95266.13
2023-03-12T07:45:40.407Z,95273.00
2023-03-12T07:48:26.336Z,95268.97
2023-03-12T07:51:12.225Z,95269.28
2023-03-12T07:53:58.034Z,95265.47
2023-03-12T07:56:43.955Z,95274.50
2023-03-12T07:59:29.919Z,95249.81
2023-03-12T08:02:16.109Z,95275.91
2023-03-12T08:05:02.392Z,95257.81
2023-03-12T08:07:48.164Z,95274.38
2023-03-12T08:10:33.987Z,95249.31
2023-03-12T08:13:20.054Z,95272.50
2023-03-12T08:16:08.946Z,95282.50
2023-03-12T08:18:55.479Z,95263.50
2023-03-12T08:21:41.796Z,95278.06
2023-03-12T08:24:27.532Z,95282.28
2023-03-12T08:27:14.418Z,95289.13
2023-03-12T08:30:00.341Z,95280.78
2023-03-12T08:32:46.537Z,95277.78
2023-03-12T08:35:32.561Z,95289.03
2023-03-12T08:38:18.370Z,95293.63
2023-03-12T08:41:04.349Z,95284.41
2023-03-12T08:43:50.209Z,95300.66
2023-03-12T08:46:36.138Z,95268.66
2023-03-12T08:49:22.664Z,95265.69
2023-03-12T08:52:08.995Z,95282.19
2023-03-12T08:54:55.054Z,95295.56
2023-03-12T08:57:41.118Z,95293.66
2023-03-12T09:00:27.100Z,95280.88
2023-03-12T09:03:14.937Z,95288.88
2023-03-12T09:06:17.009Z,95299.53
2023-03-12T09:09:06.436Z,95294.31
2023-03-12T09:11:52.225Z,95286.91
2023-03-12T09:17:44.205Z,95278.53
2023-03-12T09:20:30.248Z,95283.03
2023-03-12T09:23:16.137Z,95296.94
2023-03-12T09:26:01.954Z,95288.38
2023-03-12T09:28:47.874Z,95290.59
2023-03-12T09:31:36.118Z,95302.63
2023-03-12T09:34:22.534Z,95307.88
2023-03-12T09:37:08.519Z,95307.13
2023-03-12T09:39:55.779Z,95289.91
2023-03-12T09:42:47.975Z,95292.13
2023-03-12T09:45:42.791Z,95295.25
2023-03-12T09:48:36.231Z,95287.50
2023-03-12T09:51:44.842Z,95296.13
2023-03-12T09:54:42.695Z,95289.31
2023-03-12T09:57:30.056Z,95290.44
2023-03-12T10:00:22.518Z,95290.94
2023-03-12T10:03:23.887Z,95301.06
2023-03-12T10:06:21.494Z,95289.38
2023-03-12T10:09:29.969Z,95287.59
2023-03-12T10:12:30.087Z,95308.84
2023-03-12T10:15:28.366Z,95300.53
2023-03-12T10:18:35.989Z,95308.84
2023-03-12T10:21:31.397Z,95297.97
2023-03-12T10:24:28.953Z,95297.75
2023-03-12T10:27:17.731Z,95273.25
2023-03-12T10:30:14.495Z,95303.72
2023-03-12T10:33:04.466Z,95299.25
2023-03-12T10:35:52.060Z,95262.59
2023-03-12T10:38:38.082Z,95279.66
2023-03-12T10:41:26.656Z,95279.50
2023-03-12T10:44:21.776Z,95283.81
2023-03-12T10:47:17.925Z,95270.78
2023-03-12T10:50:26.759Z,95303.56
2023-03-12T10:53:28.567Z,95305.13
2023-03-12T10:56:17.950Z,95288.53
2023-03-12T10:59:21.177Z,95278.78
2023-03-12T11:02:30.309Z,95283.81
2023-03-12T11:05:49.628Z,95284.28
2023-03-12T11:08:36.900Z,95260.06
2023-03-12T11:11:35.084Z,95287.41
2023-03-12T11:14:29.417Z,95261.03
2023-03-12T11:17:27.016Z,95272.59
2023-03-12T11:20:25.342Z,95274.78
2023-03-12T11:23:17.035Z,95276.41
2023-03-12T11:26:25.578Z,95262.91
2023-03-12T11:29:14.604Z,95264.84
2023-03-12T11:32:11.030Z,95265.50
2023-03-12T11:34:57.630Z,95270.84
2023-03-12T11:37:52.776Z,95223.56
2023-03-12T11:40:57.177Z,95269.47
2023-03-12T11:44:01.911Z,95268.84
2023-03-12T11:47:02.920Z,95272.75
2023-03-12T11:50:08.768Z,95266.94
2023-03-12T11:53:17.537Z,95275.03
2023-03-12T11:56:39.692Z,95257.72
2023-03-12T11:59:41.821Z,95257.34
2023-03-12T12:02:55.727Z,95244.19
2023-03-12T12:05:51.090Z,95223.75
2023-03-12T12:08:55.224Z,95238.47
2023-03-12T12:11:56.786Z,95243.25
2023-03-12T12:15:20.693Z,95249.56
2023-03-12T12:18:40.662Z,95240.50
2023-03-12T12:21:55.466Z,95244.47
2023-03-12T12:25:18.202Z,95239.06
2023-03-12T12:28:23.058Z,95234.69
2023-03-12T12:31:19.045Z,95227.38
2023-03-12T12:34:30.134Z,95240.88
2023-03-12T12:37:44.823Z,95236.53
2023-03-12T12:40:37.508Z,95234.47
2023-03-12T12:43:33.341Z,95238.28
2023-03-12T12:46:22.498Z,95246.44
2023-03-12T12:49:23.892Z,95253.50
2023-03-12T12:52:13.718Z,95250.63
2023-03-12T12:55:10.708Z,95256.22
2023-03-12T12:58:01.484Z,95247.91
2023-03-12T13:00:55.043Z,95252.56
2023-03-12T13:03:41.074Z,95264.25
2023-03-12T13:07:08.532Z,95271.91
2023-03-12T13:09:57.173Z,95263.34
2023-03-12T13:12:49.938Z,95265.91
2023-03-12T13:15:40.162Z,95260.69
2023-03-12T13:18:28.448Z,95254.66
2023-03-12T13:21:19.890Z,95270.69
2023-03-12T13:24:17.120Z,95267.66
2023-03-12T13:27:28.721Z,95266.50
2023-03-12T13:30:33.058Z,95270.00
2023-03-12T13:33:21.805Z,95274.78
2023-03-12T13:36:16.725Z,95272.75
2023-03-12T13:39:08.472Z,95268.03
2023-03-12T13:41:59.022Z,95266.81
2023-03-12T13:44:46.612Z,95273.19
2023-03-12T13:47:39.047Z,95286.00
2023-03-12T13:50:25.505Z,95290.34
2023-03-12T13:53:17.136Z,95280.25
2023-03-12T13:56:10.771Z,95290.78
2023-03-12T13:59:00.519Z,95282.72
2023-03-12T14:01:51.399Z,95279.16
2023-03-12T14:04:39.123Z,95272.75
2023-03-12T14:07:40.250Z,95295.25
2023-03-12T14:10:32.327Z,95297.50
2023-03-12T14:13:25.763Z,95288.69
2023-03-12T14:16:35.899Z,95295.34
2023-03-12T14:19:27.436Z,95300.38
2023-03-12T14:22:13.748Z,95302.75
2023-03-12T14:25:04.437Z,95278.00
2023-03-12T14:27:50.372Z,95303.06
2023-03-12T14:30:54.543Z,95295.50
2023-03-12T14:33:52.530Z,95297.22
2023-03-12T14:36:41.761Z,95285.41
2023-03-12T14:39:46.178Z,95294.13
2023-03-12T14:42:34.589Z,95296.06
2023-03-12T14:45:23.557Z,95289.09
2023-03-12T14:48:12.014Z,95282.47
2023-03-12T14:50:59.921Z,95273.66
2023-03-12T14:53:45.984Z,95297.56
2023-03-12T14:56:35.890Z,95283.28
2023-03-12T14:59:25.590Z,95282.66
2023-03-12T15:02:14.528Z,95278.88
2023-03-12T15:05:01.900Z,95289.78
2023-03-12T15:07:49.006Z,95289.31
2023-03-12T15:10:35.390Z,95285.78
2023-03-12T15:13:23.229Z,95302.38
2023-03-12T15:16:09.301Z,95293.09
2023-03-12T15:18:55.258Z,95309.19
2023-03-12T15:21:41.532Z,95293.75
2023-03-12T15:24:29.128Z,95295.28
2023-03-12T15:27:28.801Z,95311.13
2023-03-12T15:30:26.038Z,95315.41
2023-03-12T15:33:24.583Z,95255.69
2023-03-12T15:36:19.960Z,95323.28
2023-03-12T15:39:32.774Z,95321.06
2023-03-12T15:42:23.558Z,95323.34
2023-03-12T15:45:21.371Z,95315.50
2023-03-12T15:48:30.050Z,95329.19
2023-03-12T15:51:36.664Z,95335.84
2023-03-12T15:54:27.365Z,95327.50
2023-03-12T15:57:26.067Z,95316.75
2023-03-12T16:00:14.813Z,95340.47
2023-03-12T16:03:06.221Z,95346.66
2023-03-12T16:05:52.012Z,95351.69
2023-03-12T16:08:45.036Z,95347.25
2023-03-12T16:11:33.435Z,95357.19
2023-03-12T16:14:24.588Z,95365.22
2023-03-12T16:17:14.070Z,95360.75
2023-03-12T16:20:00.006Z,95363.16
2023-03-12T16:22:45.824Z,95367.56
2023-03-12T16:25:31.792Z,95369.28
2023-03-12T16:28:19.408Z,95372.38
2023-03-12T16:31:11.470Z,95381.47
2023-03-12T16:33:58.194Z,95387.59
2023-03-12T16:36:44.331Z,95388.63
2023-03-12T16:39:33.281Z,95399.53
2023-03-12T16:42:20.046Z,95404.88
2023-03-12T16:45:09.155Z,95398.41
2023-03-12T16:48:00.178Z,95401.44
2023-03-12T16:50:53.031Z,95395.09
2023-03-12T16:53:38.934Z,95400.78
2023-03-12T16:56:26.182Z,95409.00
2023-03-12T16:59:23.833Z,95412.75
2023-03-12T17:02:15.943Z,95419.06
2023-03-12T17:05:02.286Z,95424.59
2023-03-12T17:07:48.246Z,95430.13
2023-03-12T17:10:34.198Z,95428.69
2023-03-12T17:13:22.932Z,95442.88
2023-03-12T17:16:11.543Z,95441.34
2023-03-12T17:18:57.440Z,95442.94
2023-03-12T17:21:44.303Z,95442.91
2023-03-12T17:24:30.403Z,95451.13
2023-03-12T17:27:16.594Z,95446.72
2023-03-12T17:30:02.936Z,95466.47
2023-03-12T17:32:50.257Z,95457.44
2023-03-12T17:35:37.090Z,95466.31
2023-03-12T17:38:24.760Z,95469.22
2023-03-12T17:41:25.564Z,95484.22
2023-03-12T17:44:14.867Z,95484.31
2023-03-12T17:47:02.224Z,95453.63
2023-03-12T17:49:48.527Z,95486.72
2023-03-12T17:52:34.395Z,95493.63
2023-03-12T17:55:20.230Z,95485.44
2023-03-12T17:58:06.442Z,95504.97
2023-03-12T18:00:52.380Z,95484.41
2023-03-12T18:03:38.473Z,95506.13
2023-03-12T18:06:25.045Z,95508.72
2023-03-12T18:09:11.018Z,95522.91
2023-03-12T18:11:56.952Z,95526.13
2023-03-12T18:14:42.767Z,95534.06
2023-03-12T18:17:28.691Z,95536.59
2023-03-12T18:20:19.562Z,95558.78
2023-03-12T18:23:11.763Z,95569.19
2023-03-12T18:25:57.604Z,95566.75
2023-03-12T18:28:43.527Z,95583.47
2023-03-12T18:31:29.542Z,95577.00
2023-03-12T18:34:16.106Z,95584.16
2023-03-12T18:37:02.098Z,95582.88
2023-03-12T18:39:48.116Z,95581.13
2023-03-12T18:42:34.249Z,95588.59
2023-03-12T18:45:20.133Z,95595.97
2023-03-12T18:48:05.996Z,95596.16
2023-03-12T18:50:51.906Z,95598.34
2023-03-12T18:53:37.767Z,95591.09
2023-03-12T18:56:23.620Z,95604.25
2023-03-12T18:59:14.608Z,95609.94
2023-03-12T19:02:00.572Z,95619.84
2023-03-12T19:04:46.369Z,95620.53
2023-03-12T19:07:32.546Z,95634.75
2023-03-12T19:10:18.984Z,95636.97
2023-03-12T19:13:04.968Z,95645.97
2023-03-12T19:15:58.086Z,95646.97
2023-03-12T19:18:43.902Z,95647.19
2023-03-12T19:21:29.701Z,95656.84
2023-03-12T19:24:15.619Z,95664.00
2023-03-12T19:27:01.399Z,95664.84
2023-03-12T19:29:47.224Z,95672.94
2023-03-12T19:32:42.554Z,95676.88
2023-03-12T19:35:29.256Z,95673.75
2023-03-12T19:38:15.115Z,95692.06
2023-03-12T19:41:00.959Z,95686.72
2023-03-12T19:43:46.754Z,95696.56
2023-03-12T19:46:32.862Z,95696.25
2023-03-12T19:49:18.858Z,95699.88
2023-03-12T19:52:04.650Z,95675.75
2023-03-12T19:55:03.470Z,95671.59
2023-03-12T19:57:50.515Z,95697.56
2023-03-12T20:00:36.707Z,95692.56
2023-03-12T20:03:23.257Z,95697.41
2023-03-12T20:06:10.309Z,95704.41
2023-03-12T20:08:56.329Z,95692.91
2023-03-12T20:11:42.069Z,95703.25
2023-03-12T20:14:28.109Z,95708.06
2023-03-12T20:17:15.003Z,95710.56
2023-03-12T20:20:01.495Z,95717.88
2023-03-12T20:22:49.513Z,95723.53
2023-03-12T20:25:39.550Z,95734.53
2023-03-12T20:28:25.536Z,95737.03
2023-03-12T20:31:14.046Z,95729.88
2023-03-12T20:34:00.215Z,95707.56
2023-03-12T20:36:46.214Z,95747.53
2023-03-12T20:39:31.846Z,95739.34
2023-03-12T20:42:17.667Z,95747.34
2023-03-12T20:45:03.836Z,95754.50
2023-03-12T20:47:50.181Z,95757.47
2023-03-12T20:50:37.885Z,95762.81
2023-03-12T20:53:23.664Z,95751.00
2023-03-12T20:56:10.610Z,95760.97
2023-03-12T20:58:57.275Z,95769.13
2023-03-12T21:01:43.467Z,95780.88
2023-03-12T21:04:29.712Z,95785.56
2023-03-12T21:07:15.540Z,95779.22
2023-03-12T21:10:01.251Z,95782.06
2023-03-12T21:12:47.143Z,95787.03
2023-03-12T21:15:33.081Z,95792.53
2023-03-12T21:18:19.270Z,95781.19
2023-03-12T21:21:06.778Z,95804.31
2023-03-12T21:23:53.289Z,95812.28
2023-03-12T21:26:39.016Z,95795.28
2023-03-12T21:29:24.882Z,95811.44
2023-03-12T21:32:10.740Z,95819.88
2023-03-12T21:34:56.693Z,95821.88
2023-03-12T21:37:43.608Z,95810.06
2023-03-12T21:40:29.382Z,95806.81
2023-03-12T21:43:15.182Z,95812.31
2023-03-12T21:46:12.165Z,95806.59
2023-03-12T21:49:01.481Z,95833.91
2023-03-12T21:51:47.303Z,95802.03
2023-03-12T21:54:34.288Z,95839.03
2023-03-12T21:57:20.424Z,95836.16
2023-03-12T22:00:11.782Z,95812.66
2023-03-12T22:02:57.687Z,95839.59
2023-03-12T22:05:43.424Z,95829.53
2023-03-12T22:08:29.399Z,95829.06
2023-03-12T22:11:15.940Z,95814.16
2023-03-12T22:14:02.008Z,95830.00
2023-03-12T22:16:48.050Z,95838.13
2023-03-12T22:19:33.853Z,95837.63
2023-03-12T22:22:19.733Z,95817.03
2023-03-12T22:25:05.954Z,95841.41
2023-03-12T22:27:51.989Z,95846.81
2023-03-12T22:30:37.900Z,95831.78
2023-03-12T22:33:23.691Z,95843.78
2023-03-12T22:36:12.652Z,95858.91
2023-03-12T22:38:58.488Z,95865.78
2023-03-12T22:41:44.352Z,95865.13
2023-03-12T22:44:30.234Z,95873.53
2023-03-12T22:47:15.922Z,95865.28
2023-03-12T22:50:01.922Z,95875.44
2023-03-12T22:52:47.715Z,95880.06
2023-03-12T22:55:33.999Z,95876.19
2023-03-12T22:58:20.072Z,95882.78
2023-03-12T23:01:14.518Z,95878.47
2023-03-12T23:04:00.645Z,95891.06
2023-03-12T23:06:46.835Z,95880.53
2023-03-12T23:09:32.606Z,95891.28
2023-03-12T23:12:18.504Z,95891.59
2023-03-12T23:15:04.748Z,95890.47
2023-03-12T23:17:50.867Z,95901.09
2023-03-12T23:20:36.892Z,95903.34
2023-03-12T23:23:22.695Z,95900.69
2023-03-12T23:26:08.828Z,95898.81
2023-03-12T23:28:56.113Z,95898.38
2023-03-12T23:31:41.938Z,95915.16
2023-03-12T23:34:27.811Z,95914.31
2023-03-12T23:37:14.346Z,95903.59
2023-03-12T23:40:00.252Z,95913.22
2023-03-12T23:42:46.067Z,95898.63
2023-03-12T23:45:31.863Z,95910.19
2023-03-12T23:48:17.950Z,95918.44
2023-03-12T23:51:15.968Z,95940.66
2023-03-12T23:54:05.389Z,95946.22
2023-03-12T23:56:51.394Z,95939.56
2023-03-12T23:59:37.493Z,95931.06
